Time;durP1;ratioP1;P1;durP2;ratioP2;P2;SDS_P1;SDS_P2;PMS_P1;PMS_P2;Temp;Humidity;BMP_temperature;BMP_pressure;BME280_temperature;BME280_humidity;BME280_pressure;Samples;Min_cycle;Max_cycle;Signal;HPM_P1;HPM_P2
2023/02/06 00:00:26;;;;;;;74.80;33.20;;;;;;;-8.02;83.86;102747.20;107513;1253;80238;-55
2023/02/06 00:03:28;;;;;;;66.00;32.30;;;;;;;-8.01;83.79;102750.69;107482;1253;81038;-56
2023/02/06 00:06:07;;;;;;;66.20;33.50;;;;;;;-7.95;83.90;102751.50;107486;1254;99867;-58
2023/02/06 00:08:56;;;;;;;67.30;33.60;;;;;;;-7.92;83.97;102750.77;107505;1253;88013;-57
2023/02/06 00:11:39;;;;;;;67.70;32.40;;;;;;;-7.87;84.08;102747.40;107514;1254;94836;-58
2023/02/06 00:14:23;;;;;;;79.20;35.30;;;;;;;-7.87;84.05;102744.08;107506;1254;79087;-56
2023/02/06 00:17:09;;;;;;;71.20;34.30;;;;;;;-7.87;84.12;102743.71;107467;1257;81967;-55
2023/02/06 00:19:46;;;;;;;72.30;34.60;;;;;;;-7.83;84.01;102748.94;107511;1257;97866;-55
2023/02/06 00:22:31;;;;;;;72.50;34.80;;;;;;;-7.82;84.11;102746.64;107453;1257;88716;-55
2023/02/06 00:25:08;;;;;;;69.90;34.50;;;;;;;-7.81;84.20;102750.14;107478;1256;94523;-57
2023/02/06 00:27:46;;;;;;;70.00;33.50;;;;;;;-7.82;84.05;102749.96;107514;1254;81091;-57
2023/02/06 00:30:20;;;;;;;69.10;34.10;;;;;;;-7.78;84.21;102753.95;107530;1254;81833;-58
2023/02/06 00:32:57;;;;;;;62.90;30.60;;;;;;;-7.75;84.38;102752.88;107499;1254;100131;-58
2023/02/06 00:35:36;;;;;;;64.40;30.70;;;;;;;-7.70;84.24;102760.52;107463;1253;88329;-58
2023/02/06 00:38:11;;;;;;;60.50;29.60;;;;;;;-7.63;84.48;102766.21;107457;1253;95152;-58
2023/02/06 00:40:52;;;;;;;58.80;28.00;;;;;;;-7.58;84.48;102765.80;107513;1253;79744;-55
2023/02/06 00:43:34;;;;;;;61.80;30.10;;;;;;;-7.54;84.62;102761.39;107486;1253;81742;-56
2023/02/06 00:46:22;;;;;;;63.10;29.40;;;;;;;-7.50;84.83;102760.30;107496;1253;99356;-58
2023/02/06 00:49:02;;;;;;;61.20;28.80;;;;;;;-7.45;84.55;102766.19;107495;1254;88792;-55
2023/02/06 00:51:44;;;;;;;65.60;32.30;;;;;;;-7.47;84.68;102759.39;107498;1254;95562;-54
2023/02/06 00:54:19;;;;;;;68.30;33.40;;;;;;;-7.47;84.85;102753.97;107485;1253;82078;-54
2023/02/06 00:56:56;;;;;;;68.80;33.20;;;;;;;-7.46;84.71;102753.59;107470;1257;82043;-55
2023/02/06 00:59:38;;;;;;;64.10;32.50;;;;;;;-7.41;84.75;102748.82;107486;1254;99885;-56
2023/02/06 01:02:23;;;;;;;68.30;35.60;;;;;;;-7.36;84.93;102748.23;107471;1253;88810;-55
2023/02/06 01:05:01;;;;;;;74.00;35.10;;;;;;;-7.29;84.69;102745.88;107520;1256;95718;-58
2023/02/06 01:07:42;;;;;;;72.40;34.60;;;;;;;-7.25;84.98;102744.94;107520;1253;81148;-58
2023/02/06 01:10:26;;;;;;;76.20;37.60;;;;;;;-7.20;85.04;102738.40;107524;1253;82392;-57
2023/02/06 01:13:03;;;;;;;77.50;38.20;;;;;;;-7.09;85.02;102740.17;107503;1253;99154;-57
2023/02/06 01:15:45;;;;;;;77.70;36.00;;;;;;;-7.02;85.15;102744.82;107541;1254;89189;-58
2023/02/06 01:18:21;;;;;;;74.80;37.10;;;;;;;-7.05;85.22;102734.70;107486;1253;95523;-57
2023/02/06 01:20:57;;;;;;;76.70;39.10;;;;;;;-7.07;84.99;102735.25;107493;1253;80552;-55
2023/02/06 01:23:32;;;;;;;77.20;37.50;;;;;;;-7.08;84.96;102735.78;107516;1254;83065;-55
2023/02/06 01:26:15;;;;;;;76.40;39.40;;;;;;;-7.12;84.96;102731.64;107474;1253;99583;-55
2023/02/06 01:28:57;;;;;;;75.40;37.20;;;;;;;-7.18;85.13;102728.91;107481;1253;89205;-55
2023/02/06 01:31:43;;;;;;;77.20;39.20;;;;;;;-7.18;84.81;102729.60;107472;1253;94321;-55
2023/02/06 01:34:26;;;;;;;82.10;38.20;;;;;;;-7.20;84.77;102726.50;107489;1257;82177;-57
2023/02/06 01:37:09;;;;;;;75.30;38.70;;;;;;;-7.18;85.01;102730.50;107511;1253;81766;-57
2023/02/06 01:39:51;;;;;;;77.70;38.80;;;;;;;-7.16;84.96;102733.25;107501;1253;99064;-55
2023/02/06 01:42:36;;;;;;;78.30;38.90;;;;;;;-7.11;85.25;102726.73;107463;1253;87492;-55
2023/02/06 01:45:45;;;;;;;81.10;36.60;;;;;;;-7.11;85.12;102727.25;107463;1256;95008;-55
2023/02/06 01:48:30;;;;;;;72.80;37.50;;;;;;;-7.10;85.10;102722.52;107469;1254;79419;-55
2023/02/06 01:51:11;;;;;;;80.10;37.30;;;;;;;-7.17;85.01;102725.58;107507;1257;81287;-61
2023/02/06 01:53:51;;;;;;;78.10;39.50;;;;;;;-7.24;84.96;102724.98;107501;1254;99862;-57
2023/02/06 01:56:33;;;;;;;82.10;39.00;;;;;;;-7.31;85.01;102722.95;107483;1253;87270;-57
2023/02/06 01:59:19;;;;;;;83.40;40.00;;;;;;;-7.36;85.06;102726.70;107535;1254;95216;-56
2023/02/06 02:02:05;;;;;;;88.20;41.70;;;;;;;-7.39;84.96;102730.23;107448;1259;81758;-57
2023/02/06 02:04:47;;;;;;;82.70;40.00;;;;;;;-7.41;84.77;102732.89;107580;1253;80511;-55
2023/02/06 02:07:26;;;;;;;81.20;38.80;;;;;;;-7.44;84.74;102727.50;107496;1253;99380;-54
2023/02/06 02:10:07;;;;;;;85.20;40.30;;;;;;;-7.45;85.10;102726.99;107523;1253;87614;-58
2023/02/06 02:12:47;;;;;;;77.00;39.60;;;;;;;-7.47;84.92;102724.74;107513;1253;95453;-57
2023/02/06 02:15:35;;;;;;;78.30;39.90;;;;;;;-7.48;84.82;102713.91;107511;1253;79226;-54
2023/02/06 02:18:29;;;;;;;82.10;40.10;;;;;;;-7.51;84.88;102716.21;107544;1253;82521;-55
2023/02/06 02:21:45;;;;;;;79.70;38.20;;;;;;;-7.54;84.76;102711.54;107512;1257;97336;-55
2023/02/06 02:24:36;;;;;;;78.00;39.60;;;;;;;-7.61;84.89;102710.04;107517;1254;89463;-57
2023/02/06 02:27:45;;;;;;;93.20;43.80;;;;;;;-7.66;84.79;102713.77;107474;1253;94991;-57
2023/02/06 02:30:51;;;;;;;91.30;41.20;;;;;;;-7.71;84.69;102720.48;107464;1254;79909;-57
2023/02/06 02:34:01;;;;;;;87.90;40.10;;;;;;;-7.77;84.73;102724.56;107530;1253;83172;-56
2023/02/06 02:36:46;;;;;;;79.20;39.50;;;;;;;-7.83;84.52;102722.70;107512;1253;99137;-54
2023/02/06 02:39:35;;;;;;;87.40;41.80;;;;;;;-7.85;84.71;102727.09;107523;1253;88867;-57
2023/02/06 02:42:28;;;;;;;81.20;39.30;;;;;;;-7.81;84.79;102728.10;107482;1255;95251;-57
2023/02/06 02:45:10;;;;;;;79.00;39.00;;;;;;;-7.74;84.94;102728.55;107557;1253;80347;-57
2023/02/06 02:47:51;;;;;;;88.70;41.60;;;;;;;-7.74;84.82;102729.95;107465;1259;83438;-57
2023/02/06 02:50:26;;;;;;;88.70;41.70;;;;;;;-7.78;84.85;102733.50;107524;1253;97569;-57
2023/02/06 02:53:13;;;;;;;85.80;38.50;;;;;;;-7.84;84.95;102737.05;107532;1253;88727;-57
2023/02/06 02:55:59;;;;;;;86.10;39.50;;;;;;;-7.89;84.87;102734.13;107505;1257;93870;-54
2023/02/06 02:58:36;;;;;;;89.30;39.60;;;;;;;-7.93;84.85;102735.41;107525;1253;82313;-56
2023/02/06 03:01:27;;;;;;;87.20;39.70;;;;;;;-7.98;84.59;102735.80;107536;1257;80461;-57
2023/02/06 03:04:16;;;;;;;78.40;38.40;;;;;;;-8.00;84.49;102736.87;107491;1254;99680;-58
2023/02/06 03:07:14;;;;;;;80.20;37.40;;;;;;;-7.98;84.74;102737.02;107519;1253;86181;-57
2023/02/06 03:10:06;;;;;;;84.70;39.60;;;;;;;-7.98;84.90;102732.98;107518;1253;95064;-57
2023/02/06 03:12:50;;;;;;;74.50;37.80;;;;;;;-7.98;84.78;102731.95;107507;1253;80216;-58
2023/02/06 03:15:38;;;;;;;74.70;38.30;;;;;;;-7.98;84.82;102728.10;107527;1253;81968;-54
2023/02/06 03:18:24;;;;;;;77.70;37.10;;;;;;;-7.98;84.73;102730.38;107511;1253;98625;-54
2023/02/06 03:21:12;;;;;;;81.50;38.90;;;;;;;-8.01;84.69;102726.56;107484;1253;88237;-55
2023/02/06 03:23:58;;;;;;;77.50;36.90;;;;;;;-8.06;84.71;102722.60;107502;1253;94665;-54
2023/02/06 03:26:39;;;;;;;86.50;39.20;;;;;;;-8.11;84.59;102722.11;107481;1253;81737;-54
2023/02/06 03:29:25;;;;;;;83.60;37.20;;;;;;;-8.17;84.72;102720.42;107505;1253;82182;-56
2023/02/06 03:32:15;;;;;;;78.20;38.60;;;;;;;-8.19;84.76;102722.55;107446;1257;99362;-56
2023/02/06 03:35:04;;;;;;;81.80;37.50;;;;;;;-8.20;84.84;102721.15;107522;1254;88866;-57
2023/02/06 03:37:44;;;;;;;74.50;37.30;;;;;;;-8.20;84.83;102724.46;107491;1254;96203;-57
2023/02/06 03:40:23;;;;;;;77.80;35.90;;;;;;;-8.21;84.94;102721.67;107474;1253;81426;-57
2023/02/06 03:43:02;;;;;;;82.10;37.10;;;;;;;-8.21;84.93;102718.02;107508;1256;82423;-57
2023/02/06 03:45:40;;;;;;;71.70;36.00;;;;;;;-8.22;84.99;102715.77;107519;1254;98261;-54
2023/02/06 03:48:19;;;;;;;75.00;36.40;;;;;;;-8.20;84.93;102717.14;107465;1256;88197;-54
2023/02/06 03:51:02;;;;;;;75.10;36.60;;;;;;;-8.22;84.98;102720.13;107470;1253;92446;-57
2023/02/06 03:53:43;;;;;;;;;;;;;;;-8.23;84.99;102720.13;107514;1253;82496;-56
2023/02/06 03:56:30;;;;;;;76.40;35.40;;;;;;;-8.21;84.88;102715.58;107492;1253;82932;-57
2023/02/06 03:59:08;;;;;;;75.10;35.40;;;;;;;-8.21;84.83;102719.23;107166;1253;507935;-55
2023/02/06 04:01:50;;;;;;;77.40;35.20;;;;;;;-8.18;84.98;102721.48;107475;1253;89489;-55
2023/02/06 04:04:37;;;;;;;69.40;34.40;;;;;;;-8.12;84.92;102722.82;107508;1253;95100;-57
2023/02/06 04:07:20;;;;;;;76.60;34.70;;;;;;;-8.07;84.87;102724.52;107487;1253;79933;-57
2023/02/06 04:10:04;;;;;;;84.80;38.10;;;;;;;-8.02;85.24;102726.59;107507;1253;82645;-55
2023/02/06 04:12:43;;;;;;;82.40;39.10;;;;;;;-7.96;85.27;102720.39;107479;1253;99342;-55
2023/02/06 04:15:24;;;;;;;86.10;39.60;;;;;;;-7.89;85.25;102717.68;107502;1257;89290;-54
2023/02/06 04:18:05;;;;;;;90.20;41.20;;;;;;;-7.77;85.37;102715.14;107453;1257;94907;-54
2023/02/06 04:20:44;;;;;;;85.80;41.60;;;;;;;-7.70;85.44;102712.59;107481;1254;82433;-55
2023/02/06 04:23:28;;;;;;;88.20;40.90;;;;;;;-7.65;85.60;102711.84;107476;1253;82858;-54
2023/02/06 04:26:09;;;;;;;87.70;42.30;;;;;;;-7.61;85.47;102708.45;107506;1253;99788;-57
2023/02/06 04:28:54;;;;;;;92.60;44.70;;;;;;;-7.48;85.48;102708.83;107523;1253;89110;-54
2023/02/06 04:31:29;;;;;;;92.40;42.60;;;;;;;-7.39;85.46;102712.38;107426;1256;95561;-55
2023/02/06 04:34:06;;;;;;;95.00;41.30;;;;;;;-7.39;85.42;102717.65;107488;1253;79708;-54
2023/02/06 04:36:48;;;;;;;80.60;38.60;;;;;;;-7.40;85.47;102717.13;107490;1254;82581;-54
2023/02/06 04:39:28;;;;;;;87.90;41.10;;;;;;;-7.38;85.53;102712.55;107491;1253;99016;-55
2023/02/06 04:42:05;;;;;;;85.50;38.70;;;;;;;-7.42;85.52;102707.17;107501;1253;89108;-53
2023/02/06 04:44:48;;;;;;;81.10;38.20;;;;;;;-7.45;85.32;102707.56;107504;1253;94424;-57
2023/02/06 04:47:25;;;;;;;;;;;;;;;-7.44;85.42;102702.83;107491;1253;80441;-57
2023/02/06 04:50:07;;;;;;;82.50;36.80;;;;;;;-7.44;85.48;102704.77;107523;1256;83197;-56
2023/02/06 04:52:42;;;;;;;83.70;37.50;;;;;;;-7.47;85.43;102709.00;107507;1253;99987;-57
2023/02/06 04:55:24;;;;;;;77.10;37.40;;;;;;;-7.49;85.59;102707.10;107530;1256;88608;-55
2023/02/06 04:57:58;;;;;;;82.50;37.60;;;;;;;-7.49;85.48;102711.63;107513;1253;94970;-55
2023/02/06 05:00:40;;;;;;;80.80;37.20;;;;;;;-7.53;85.51;102716.40;107521;1253;80737;-57
2023/02/06 05:03:22;;;;;;;81.40;37.10;;;;;;;-7.56;85.69;102721.16;107476;1253;82515;-56
2023/02/06 05:06:01;;;;;;;66.50;32.00;;;;;;;-7.55;85.65;102719.23;107510;1253;99605;-57
2023/02/06 05:08:41;;;;;;;76.20;37.20;;;;;;;-7.50;85.73;102720.05;107564;1253;88019;-57
2023/02/06 05:11:25;;;;;;;80.70;37.80;;;;;;;-7.53;85.69;102725.86;107487;1257;95294;-57
2023/02/06 05:14:11;;;;;;;131.50;59.70;;;;;;;-7.53;85.48;102726.73;107547;1254;81912;-57
2023/02/06 05:16:49;;;;;;;138.30;59.70;;;;;;;-7.55;85.21;102729.39;107514;1257;80360;-57
2023/02/06 05:19:30;;;;;;;100.30;48.90;;;;;;;-7.57;85.18;102727.13;107403;1253;98617;-55
2023/02/06 05:22:12;;;;;;;101.30;45.70;;;;;;;-7.61;85.44;102724.90;107470;1253;87253;-53
2023/02/06 05:24:55;;;;;;;91.70;41.20;;;;;;;-7.57;85.53;102731.52;107500;1253;92398;-57
2023/02/06 05:27:37;;;;;;;90.70;39.70;;;;;;;-7.58;85.59;102729.23;107470;1256;81614;-57
2023/02/06 05:30:16;;;;;;;82.50;38.80;;;;;;;-7.49;85.51;102732.63;107511;1253;82617;-57
2023/02/06 05:33:00;;;;;;;76.90;36.90;;;;;;;-7.44;85.25;102729.95;107471;1257;99142;-57
2023/02/06 05:35:51;;;;;;;81.30;36.80;;;;;;;-7.46;85.46;102729.81;107512;1254;88630;-55
2023/02/06 05:38:34;;;;;;;73.80;36.30;;;;;;;-7.41;85.27;102729.38;107525;1253;95032;-55
2023/02/06 05:41:11;;;;;;;73.80;33.40;;;;;;;-7.46;85.37;102738.02;107459;1253;80605;-57
2023/02/06 05:43:49;;;;;;;68.20;33.40;;;;;;;-7.55;85.41;102740.06;107547;1253;82875;-54
2023/02/06 05:46:26;;;;;;;73.50;33.50;;;;;;;-7.51;85.70;102743.70;107500;1256;98509;-56
2023/02/06 05:49:06;;;;;;;77.30;34.70;;;;;;;-7.51;85.73;102743.69;107513;1253;88453;-57
2023/02/06 05:51:45;;;;;;;72.00;32.20;;;;;;;-7.49;85.66;102742.62;107519;1253;94796;-57
2023/02/06 05:54:25;;;;;;;68.90;33.40;;;;;;;-7.44;85.72;102745.17;107496;1253;81076;-55
2023/02/06 05:57:04;;;;;;;67.60;32.40;;;;;;;-7.50;85.38;102743.50;107513;1253;82890;-55
2023/02/06 05:59:39;;;;;;;69.30;32.30;;;;;;;-7.50;85.28;102746.65;107517;1256;99990;-55
2023/02/06 06:02:14;;;;;;;69.30;32.20;;;;;;;-7.49;85.58;102747.35;107493;1257;88299;-55
2023/02/06 06:04:53;;;;;;;67.00;31.80;;;;;;;-7.49;85.48;102748.74;107529;1254;93939;-56
2023/02/06 06:07:28;;;;;;;71.40;31.70;;;;;;;-7.48;85.24;102743.13;107516;1253;80650;-56
2023/02/06 06:10:07;;;;;;;64.70;31.10;;;;;;;-7.55;85.22;102744.95;107514;1253;81318;-55
2023/02/06 06:12:46;;;;;;;66.00;32.20;;;;;;;-7.56;85.48;102746.37;107519;1253;99626;-55
2023/02/06 06:15:26;;;;;;;68.70;31.70;;;;;;;-7.48;85.50;102750.30;107390;1255;87629;-58
2023/02/06 06:18:03;;;;;;;70.90;30.80;;;;;;;-7.43;85.55;102743.95;107513;1256;92947;-58
2023/02/06 06:20:47;;;;;;;69.40;29.80;;;;;;;-7.37;85.62;102746.84;107425;1253;81445;-57
2023/02/06 06:23:25;;;;;;;64.50;30.20;;;;;;;-7.28;85.47;102745.85;107509;1258;81317;-56
2023/02/06 06:26:04;;;;;;;64.20;30.40;;;;;;;-7.20;85.39;102745.92;107490;1256;99034;-55
2023/02/06 06:28:42;;;;;;;67.10;30.20;;;;;;;-7.13;85.41;102752.48;107565;1257;87941;-56
2023/02/06 06:31:22;;;;;;;63.40;31.40;;;;;;;-7.11;85.65;102752.65;107494;1253;93830;-54
2023/02/06 06:34:06;;;;;;;67.80;30.00;;;;;;;-7.08;85.55;102752.08;107502;1253;81251;-55
2023/02/06 06:36:41;;;;;;;66.40;31.10;;;;;;;-7.07;85.39;102749.77;107517;1253;82134;-56
2023/02/06 06:39:20;;;;;;;64.60;30.20;;;;;;;-6.98;85.40;102744.05;107508;1253;98949;-57
2023/02/06 06:41:58;;;;;;;64.00;28.70;;;;;;;-6.94;85.64;102742.06;107525;1253;88734;-58
2023/02/06 06:44:38;;;;;;;59.50;30.60;;;;;;;-6.86;85.85;102746.33;107578;1254;95310;-57
2023/02/06 06:47:16;;;;;;;65.60;29.40;;;;;;;-6.81;85.74;102744.34;107508;1253;81877;-59
2023/02/06 06:49:54;;;;;;;60.50;29.30;;;;;;;-6.74;86.00;102749.65;107491;1253;83364;-57
2023/02/06 06:52:37;;;;;;;64.00;30.70;;;;;;;-6.64;85.79;102760.38;107507;1254;98874;-56
2023/02/06 06:55:13;;;;;;;66.40;29.20;;;;;;;-6.52;85.50;102762.12;107384;1253;87002;-59
2023/02/06 06:57:51;;;;;;;72.20;32.10;;;;;;;-6.44;85.76;102762.70;107486;1254;95032;-57
2023/02/06 07:00:33;;;;;;;75.10;32.50;;;;;;;-6.43;85.88;102765.49;107571;1254;82123;-61
2023/02/06 07:03:08;;;;;;;65.20;30.30;;;;;;;-6.42;85.84;102772.32;107467;1258;82766;-59
2023/02/06 07:05:51;;;;;;;67.80;31.30;;;;;;;-6.24;85.99;102772.20;107515;1257;99407;-57
2023/02/06 07:08:34;;;;;;;65.80;29.00;;;;;;;-6.11;85.67;102780.39;107516;1253;89207;-58
2023/02/06 07:11:09;;;;;;;63.70;28.90;;;;;;;-6.05;85.99;102779.94;107492;1254;94062;-60
2023/02/06 07:13:46;;;;;;;65.70;30.20;;;;;;;-5.94;85.98;102775.38;107516;1253;80733;-59
2023/02/06 07:16:23;;;;;;;69.10;30.60;;;;;;;-5.79;85.80;102780.86;107502;1257;83034;-59
2023/02/06 07:19:04;;;;;;;67.20;29.50;;;;;;;-5.77;85.84;102785.56;107547;1254;98337;-60
2023/02/06 07:21:44;;;;;;;64.70;29.20;;;;;;;-5.71;85.85;102781.95;107500;1253;86360;-60
2023/02/06 07:24:26;;;;;;;62.40;29.50;;;;;;;-5.68;85.96;102782.41;107495;1254;94773;-57
2023/02/06 07:27:06;;;;;;;67.10;29.40;;;;;;;-5.53;85.32;102777.73;107497;1253;79954;-58
2023/02/06 07:29:51;;;;;;;69.20;30.10;;;;;;;-5.48;85.42;102785.36;107498;1254;81455;-60
2023/02/06 07:32:34;;;;;;;64.90;29.90;;;;;;;-5.44;85.48;102787.55;107463;1253;100015;-60
2023/02/06 07:35:14;;;;;;;63.90;29.20;;;;;;;-5.40;85.59;102785.37;107349;1256;87757;-60
2023/02/06 07:37:53;;;;;;;68.50;31.00;;;;;;;-5.30;85.66;102786.59;107291;1256;95615;-60
2023/02/06 07:40:32;;;;;;;71.60;31.80;;;;;;;-5.23;85.87;102785.74;107335;1256;81052;-57
2023/02/06 07:43:09;;;;;;;65.70;29.40;;;;;;;-5.11;86.23;102783.38;107312;1256;82250;-57
2023/02/06 07:45:48;;;;;;;65.10;29.20;;;;;;;-5.04;85.86;102783.25;107352;1259;99186;-59
2023/02/06 07:48:28;;;;;;;95.80;42.00;;;;;;;-4.98;85.96;102784.52;107328;1256;87793;-59
2023/02/06 07:51:10;;;;;;;67.30;31.40;;;;;;;-4.84;86.15;102783.52;107277;1256;93928;-57
2023/02/06 07:53:48;;;;;;;62.40;28.90;;;;;;;-4.85;85.72;102783.71;107319;1259;80027;-57
2023/02/06 07:56:26;;;;;;;66.60;31.80;;;;;;;-4.85;85.59;102783.54;107327;1256;82266;-56
2023/02/06 07:59:03;;;;;;;67.10;29.70;;;;;;;-4.65;85.76;102774.29;107334;1256;99891;-57
2023/02/06 08:01:45;;;;;;;69.10;31.40;;;;;;;-4.43;85.64;102770.95;107343;1256;87808;-57
2023/02/06 08:04:22;;;;;;;65.30;32.00;;;;;;;-4.29;85.70;102772.73;107327;1259;95576;-57
2023/02/06 08:06:59;;;;;;;87.20;35.60;;;;;;;-4.09;85.93;102770.14;107317;1256;80213;-57
2023/02/06 08:09:36;;;;;;;67.00;30.30;;;;;;;-4.15;85.77;102773.46;107343;1255;80648;-59
2023/02/06 08:12:14;;;;;;;60.60;28.90;;;;;;;-4.01;85.76;102776.63;107308;1255;98708;-58
2023/02/06 08:14:50;;;;;;;66.20;31.00;;;;;;;-3.88;85.49;102786.67;107359;1256;89279;-57
2023/02/06 08:17:29;;;;;;;66.80;29.70;;;;;;;-3.77;85.48;102784.98;107287;1257;94888;-56
2023/02/06 08:20:05;;;;;;;65.20;32.90;;;;;;;-3.80;85.41;102785.76;107342;1256;81355;-59
2023/02/06 08:22:46;;;;;;;67.10;30.80;;;;;;;-3.67;85.55;102783.64;107309;1257;82974;-59
2023/02/06 08:25:25;;;;;;;66.60;32.40;;;;;;;-3.52;85.40;102789.23;107339;1257;97899;-58
2023/02/06 08:28:02;;;;;;;70.30;31.60;;;;;;;-3.42;85.25;102785.09;107364;1256;87108;-57
2023/02/06 08:30:45;;;;;;;73.70;33.60;;;;;;;-3.27;84.84;102776.71;107295;1255;94869;-59
2023/02/06 08:33:23;;;;;;;67.40;34.70;;;;;;;-3.09;84.85;102770.92;107383;1253;81234;-59
2023/02/06 08:36:03;;;;;;;71.10;32.70;;;;;;;-2.89;84.97;102765.40;107516;1253;82765;-58
2023/02/06 08:38:47;;;;;;;62.70;30.40;;;;;;;-2.67;84.96;102759.24;107525;1253;99313;-58
2023/02/06 08:41:35;;;;;;;62.00;30.30;;;;;;;-2.51;84.61;102760.16;107502;1253;89145;-57
2023/02/06 08:44:16;;;;;;;65.40;32.40;;;;;;;-2.36;84.83;102763.70;107537;1253;93744;-55
2023/02/06 08:46:54;;;;;;;73.90;32.90;;;;;;;-2.03;84.78;102762.27;107542;1255;79208;-56
2023/02/06 08:49:30;;;;;;;70.20;34.90;;;;;;;-1.87;84.54;102762.27;107559;1256;82398;-56
2023/02/06 08:52:08;;;;;;;65.20;33.60;;;;;;;-1.85;84.19;102764.48;107539;1254;98483;-55
2023/02/06 08:54:44;;;;;;;65.10;31.10;;;;;;;-1.97;83.85;102761.89;107546;1253;88706;-55
2023/02/06 08:57:22;;;;;;;61.20;31.90;;;;;;;-1.95;83.45;102757.59;107548;1253;95561;-55
2023/02/06 09:00:04;;;;;;;58.90;29.70;;;;;;;-1.95;82.70;102762.70;107533;1258;80291;-58
2023/02/06 09:02:44;;;;;;;60.30;31.80;;;;;;;-1.84;83.36;102763.90;107518;1257;81746;-58
2023/02/06 09:05:27;;;;;;;57.30;31.60;;;;;;;-0.94;83.98;102757.44;107519;1254;99275;-56
2023/02/06 09:08:02;;;;;;;59.50;31.90;;;;;;;0.03;83.98;102754.95;107534;1253;87826;-56
2023/02/06 09:10:41;;;;;;;52.50;31.40;;;;;;;0.56;83.36;102749.98;107530;1257;95015;-58
2023/02/06 09:13:23;;;;;;;54.70;32.40;;;;;;;1.10;82.92;102752.45;107482;1258;78509;-58
2023/02/06 09:16:05;;;;;;;56.30;31.20;;;;;;;1.80;83.02;102747.08;107523;1256;81780;-55
2023/02/06 09:18:43;;;;;;;50.30;30.00;;;;;;;2.38;82.33;102758.35;107544;1253;99182;-59
2023/02/06 09:21:26;;;;;;;49.40;30.90;;;;;;;2.91;82.37;102761.91;107576;1253;87980;-58
2023/02/06 09:24:08;;;;;;;45.80;31.40;;;;;;;2.95;80.74;102761.69;107532;1253;95312;-58
2023/02/06 09:26:48;;;;;;;49.10;30.40;;;;;;;3.28;81.06;102749.55;107527;1253;78576;-58
2023/02/06 09:29:31;;;;;;;47.10;31.10;;;;;;;3.87;80.20;102746.90;107578;1259;82762;-56
2023/02/06 09:32:13;;;;;;;48.10;32.50;;;;;;;4.32;79.51;102743.13;107519;1253;98879;-56
2023/02/06 09:34:54;;;;;;;46.30;30.70;;;;;;;5.02;78.83;102742.66;107545;1254;88132;-58
2023/02/06 09:37:33;;;;;;;41.90;28.70;;;;;;;5.73;78.00;102742.35;107549;1258;95320;-58
2023/02/06 09:40:13;;;;;;;40.60;27.90;;;;;;;5.82;76.98;102744.61;107568;1253;79367;-58
2023/02/06 09:42:52;;;;;;;42.80;29.60;;;;;;;5.79;76.51;102742.13;107537;1253;82764;-58
2023/02/06 09:45:33;;;;;;;38.80;29.30;;;;;;;5.60;75.24;102745.91;107557;1254;100197;-57
2023/02/06 09:48:27;;;;;;;43.40;30.40;;;;;;;5.39;74.30;102751.23;107537;1253;88978;-57
2023/02/06 09:51:16;;;;;;;42.00;29.30;;;;;;;5.28;74.46;102752.43;107493;1259;95104;-61
2023/02/06 09:54:04;;;;;;;44.60;30.10;;;;;;;5.05;74.32;102747.83;107553;1253;78969;-59
2023/02/06 09:56:52;;;;;;;41.70;29.20;;;;;;;4.63;73.41;102750.71;107526;1254;81749;-60
2023/02/06 09:59:36;;;;;;;43.00;30.00;;;;;;;4.47;73.08;102748.27;107362;1253;99461;-60
2023/02/06 10:02:32;;;;;;;46.60;29.20;;;;;;;4.39;72.95;102749.14;107543;1253;88435;-60
2023/02/06 10:05:24;;;;;;;45.10;29.50;;;;;;;4.12;73.25;102753.02;107541;1258;95064;-58
2023/02/06 10:08:17;;;;;;;49.40;31.60;;;;;;;3.84;73.18;102749.88;107505;1254;80788;-57
2023/02/06 10:11:00;;;;;;;48.90;32.10;;;;;;;3.61;73.43;102747.86;107532;1253;81143;-58
2023/02/06 10:13:43;;;;;;;49.50;31.60;;;;;;;3.51;73.17;102742.39;107552;1253;97956;-59
2023/02/06 10:16:35;;;;;;;50.60;31.40;;;;;;;3.53;73.24;102740.13;107505;1259;88417;-57
2023/02/06 10:19:20;;;;;;;52.40;33.90;;;;;;;3.41;72.95;102742.23;107552;1253;95087;-57
2023/02/06 10:22:05;;;;;;;57.80;35.70;;;;;;;3.15;72.89;102741.58;107518;1256;77472;-57
2023/02/06 10:25:04;;;;;;;52.50;34.60;;;;;;;2.99;72.90;102745.48;107567;1254;80148;-58
2023/02/06 10:27:44;;;;;;;58.80;35.30;;;;;;;2.77;73.06;102750.04;107542;1253;99176;-57
2023/02/06 10:30:39;;;;;;;57.80;35.10;;;;;;;2.76;72.02;102749.96;107570;1254;88975;-60
2023/02/06 10:33:25;;;;;;;;;;;;;;;2.58;71.91;102750.70;107573;1254;95405;-61
2023/02/06 10:36:11;;;;;;;60.80;34.50;;;;;;;2.42;72.81;102749.64;107507;1254;79982;-61
2023/02/06 10:39:16;;;;;;;62.10;35.90;;;;;;;2.26;73.56;102748.83;107550;1258;81458;-57
2023/02/06 10:42:06;;;;;;;67.90;37.40;;;;;;;2.02;74.18;102745.98;107521;1259;99850;-58
2023/02/06 10:45:11;;;;;;;68.40;36.40;;;;;;;1.91;73.83;102745.35;107567;1258;88594;-58
2023/02/06 10:47:54;;;;;;;67.80;38.20;;;;;;;1.80;73.88;102744.99;107548;1254;94049;-57
2023/02/06 10:50:35;;;;;;;67.20;38.00;;;;;;;1.73;73.94;102744.41;107551;1253;79618;-60
2023/02/06 10:53:20;;;;;;;65.60;36.60;;;;;;;1.77;73.74;102744.41;107528;1253;81791;-61
2023/02/06 10:55:58;;;;;;;66.90;37.60;;;;;;;1.52;74.06;102747.41;107543;1254;98216;-61
2023/02/06 10:58:41;;;;;;;65.60;37.60;;;;;;;1.41;74.46;102739.98;107539;1258;88802;-57
2023/02/06 11:01:22;;;;;;;72.90;37.30;;;;;;;1.52;74.50;102732.36;107526;1254;95325;-58
2023/02/06 11:04:11;;;;;;;67.20;37.50;;;;;;;1.54;74.54;102732.77;107524;1254;79416;-57
2023/02/06 11:06:56;;;;;;;76.10;37.40;;;;;;;1.56;74.95;102731.61;107520;1254;82732;-57
2023/02/06 11:09:38;;;;;;;70.00;39.00;;;;;;;1.55;75.35;102732.89;107575;1253;97782;-61
2023/02/06 11:12:30;;;;;;;69.60;36.60;;;;;;;1.67;75.09;102728.05;107512;1257;86722;-58
2023/02/06 11:15:09;;;;;;;69.50;37.20;;;;;;;1.68;75.22;102734.20;107556;1253;94622;-57
2023/02/06 11:17:49;;;;;;;68.80;37.70;;;;;;;1.55;75.38;102732.39;107488;1254;79122;-58
2023/02/06 11:20:33;;;;;;;66.00;37.50;;;;;;;1.61;75.58;102734.04;107534;1254;83842;-58
2023/02/06 11:23:22;;;;;;;67.60;37.60;;;;;;;1.70;75.43;102741.92;107501;1257;99532;-58
2023/02/06 11:26:09;;;;;;;68.80;37.20;;;;;;;1.78;75.24;102754.14;107544;1254;89078;-57
2023/02/06 11:28:57;;;;;;;68.20;37.00;;;;;;;1.78;75.50;102764.77;107546;1254;93509;-61
2023/02/06 11:31:51;;;;;;;68.20;38.10;;;;;;;1.69;75.71;102765.23;107531;1259;78689;-62
2023/02/06 11:34:36;;;;;;;63.50;33.00;;;;;;;1.75;75.94;102767.77;107540;1253;83293;-61
2023/02/06 11:37:35;;;;;;;74.30;40.40;;;;;;;1.73;75.63;102767.32;107514;1254;99069;-61
2023/02/06 11:40:29;;;;;;;72.80;39.00;;;;;;;1.63;75.84;102771.03;107577;1257;89073;-59
2023/02/06 11:43:21;;;;;;;67.20;37.10;;;;;;;1.65;75.63;102766.48;107511;1257;95291;-59
2023/02/06 11:46:21;;;;;;;67.90;37.60;;;;;;;1.64;75.73;102762.77;107464;1255;78708;-61
2023/02/06 11:49:22;;;;;;;68.60;36.30;;;;;;;1.62;76.01;102760.59;107560;1254;83086;-61
2023/02/06 11:52:00;;;;;;;71.20;39.10;;;;;;;1.62;75.84;102758.31;107520;1254;99152;-61
2023/02/06 11:54:43;;;;;;;71.00;37.60;;;;;;;1.69;75.77;102765.78;107564;1253;88079;-61
2023/02/06 11:57:26;;;;;;;73.50;40.00;;;;;;;1.69;75.62;102775.55;107254;1253;344774;-60
2023/02/06 12:00:22;;;;;;;73.70;38.10;;;;;;;1.71;75.58;102773.31;107579;1253;78783;-57
2023/02/06 12:02:58;;;;;;;72.20;39.00;;;;;;;1.67;75.89;102771.39;107585;1254;81414;-57
2023/02/06 12:05:40;;;;;;;63.40;37.30;;;;;;;1.62;75.79;102771.98;107571;1253;98676;-60
2023/02/06 12:08:22;;;;;;;68.00;38.00;;;;;;;1.61;76.10;102770.39;107520;1254;87727;-61
2023/02/06 12:11:06;;;;;;;70.60;37.90;;;;;;;1.65;75.93;102765.09;107520;1258;95072;-59
2023/02/06 12:13:50;;;;;;;71.10;37.70;;;;;;;1.63;76.12;102768.39;107530;1254;79045;-57